createdAt,value
2018-11-28T00:00:28.465Z,17.60
2018-11-28T00:02:57.341Z,17.43
2018-11-28T00:05:26.039Z,19.10
2018-11-28T00:07:54.761Z,19.53
2018-11-28T00:10:23.522Z,18.73
2018-11-28T00:12:52.729Z,19.30
2018-11-28T00:15:21.547Z,20.17
2018-11-28T00:17:50.226Z,19.80
2018-11-28T00:20:20.340Z,17.10
2018-11-28T00:22:49.023Z,19.27
2018-11-28T00:25:18.279Z,19.97
2018-11-28T00:27:46.952Z,19.27
2018-11-28T00:30:20.852Z,19.63
2018-11-28T00:32:49.736Z,18.57
2018-11-28T00:35:19.303Z,19.23
2018-11-28T00:37:48.128Z,19.13
2018-11-28T00:40:19.214Z,18.40
2018-11-28T00:42:48.003Z,18.77
2018-11-28T00:45:20.936Z,19.27
2018-11-28T00:47:49.673Z,17.97
2018-11-28T00:50:22.346Z,17.50
2018-11-28T00:52:51.018Z,17.30
2018-11-28T00:55:19.777Z,17.53
2018-11-28T00:57:48.465Z,18.10
2018-11-28T01:00:18.022Z,19.53
2018-11-28T01:02:47.107Z,18.40
2018-11-28T01:05:15.974Z,18.20
2018-11-28T01:07:45.172Z,18.93
2018-11-28T01:10:14.616Z,17.57
2018-11-28T01:12:43.232Z,19.13
2018-11-28T01:15:13.790Z,19.27
2018-11-28T01:17:42.434Z,19.73
2018-11-28T01:20:12.241Z,19.70
2018-11-28T01:22:41.000Z,20.27
2018-11-28T01:25:10.683Z,18.73
2018-11-28T01:27:39.389Z,20.80
2018-11-28T01:30:13.950Z,19.47
2018-11-28T01:32:42.732Z,19.53
2018-11-28T01:35:13.475Z,20.87
2018-11-28T01:37:42.388Z,20.13
2018-11-28T01:40:14.183Z,20.53
2018-11-28T01:42:42.877Z,21.43
2018-11-28T01:45:18.924Z,19.93
2018-11-28T01:47:47.606Z,22.23
2018-11-28T01:50:17.017Z,19.57
2018-11-28T01:52:45.733Z,22.17
2018-11-28T01:55:19.666Z,20.03
2018-11-28T01:57:48.414Z,21.87
2018-11-28T02:00:18.167Z,20.17
2018-11-28T02:02:47.419Z,20.13
2018-11-28T02:05:16.145Z,19.07
2018-11-28T02:07:44.869Z,19.80
2018-11-28T02:10:14.690Z,19.17
2018-11-28T02:12:43.391Z,20.37
2018-11-28T02:15:13.257Z,19.50
2018-11-28T02:17:41.892Z,19.83
2018-11-28T02:20:12.487Z,19.33
2018-11-28T02:22:41.557Z,19.23
2018-11-28T02:25:13.466Z,19.03
2018-11-28T02:27:42.176Z,19.77
2018-11-28T02:30:12.897Z,18.43
2018-11-28T02:32:41.552Z,18.60
2018-11-28T02:35:11.359Z,18.50
2018-11-28T02:37:40.144Z,18.47
2018-11-28T02:40:11.028Z,18.40
2018-11-28T02:42:39.661Z,19.20
2018-11-28T02:45:11.803Z,17.97
2018-11-28T02:47:40.758Z,17.77
2018-11-28T02:50:09.524Z,18.03
2018-11-28T02:52:38.254Z,19.47
2018-11-28T02:55:09.433Z,18.57
2018-11-28T02:57:38.451Z,18.87
2018-11-28T03:00:14.193Z,19.37
2018-11-28T03:02:42.959Z,20.13
2018-11-28T03:05:12.563Z,19.47
2018-11-28T03:07:41.336Z,19.03
2018-11-28T03:10:21.751Z,20.10
2018-11-28T03:12:50.665Z,20.27
2018-11-28T03:15:54.184Z,18.63
2018-11-28T03:18:23.875Z,18.07
2018-11-28T03:20:52.570Z,19.57
2018-11-28T03:23:21.398Z,19.57
2018-11-28T03:25:50.149Z,17.87
2018-11-28T03:28:18.958Z,18.07
2018-11-28T03:30:47.820Z,17.23
2018-11-28T03:33:16.849Z,19.07
2018-11-28T03:35:45.785Z,17.67
2018-11-28T03:38:15.552Z,19.10
2018-11-28T03:40:44.305Z,18.33
2018-11-28T03:43:13.188Z,18.97
2018-11-28T03:45:42.102Z,16.93
2018-11-28T03:48:10.999Z,18.70
2018-11-28T03:50:39.954Z,17.67
2018-11-28T03:53:08.788Z,19.93
2018-11-28T03:55:37.551Z,19.57
2018-11-28T03:58:06.372Z,20.93
2018-11-28T04:00:35.239Z,19.60
2018-11-28T04:03:03.977Z,19.97
2018-11-28T04:05:33.523Z,20.50
2018-11-28T04:08:05.958Z,19.47
2018-11-28T04:10:34.825Z,18.50
2018-11-28T04:13:03.546Z,19.60
2018-11-28T04:15:32.334Z,19.53
2018-11-28T04:18:01.129Z,16.80
2018-11-28T04:20:30.407Z,16.53
2018-11-28T04:22:59.299Z,16.80
2018-11-28T04:25:28.139Z,18.60
2018-11-28T04:27:56.953Z,17.63
2018-11-28T04:30:25.884Z,18.27
2018-11-28T04:32:55.466Z,18.83
2018-11-28T04:35:24.729Z,19.07
2018-11-28T04:37:53.454Z,18.50
2018-11-28T04:40:22.568Z,17.60
2018-11-28T04:42:51.446Z,18.90
2018-11-28T04:45:22.173Z,18.17
2018-11-28T04:47:51.570Z,17.43
2018-11-28T04:50:20.356Z,18.67
2018-11-28T05:01:04.532Z,17.33
2018-11-28T05:03:33.376Z,17.40
2018-11-28T05:06:02.468Z,18.23
2018-11-28T05:08:32.010Z,17.83
2018-11-28T05:11:02.283Z,18.00
2018-11-28T05:13:31.600Z,16.90
2018-11-28T05:16:00.625Z,16.57
2018-11-28T05:18:29.486Z,17.73
2018-11-28T05:20:58.216Z,16.53
2018-11-28T05:23:26.939Z,18.63
2018-11-28T05:25:56.058Z,17.87
2018-11-28T05:28:25.070Z,16.93
2018-11-28T05:30:54.163Z,17.73
2018-11-28T05:33:23.234Z,18.87
2018-11-28T05:35:52.505Z,17.97
2018-11-28T05:38:21.604Z,19.07
2018-11-28T05:40:50.312Z,19.27
2018-11-28T05:43:18.930Z,17.60
2018-11-28T05:45:48.157Z,18.10
2018-11-28T05:48:16.775Z,17.97
2018-11-28T05:50:45.468Z,17.07
2018-11-28T05:53:14.133Z,18.20
2018-11-28T05:55:43.085Z,18.13
2018-11-28T05:58:11.774Z,17.97
2018-11-28T06:00:41.141Z,17.23
2018-11-28T06:03:10.746Z,19.73
2018-11-28T06:05:40.204Z,19.17
2018-11-28T06:08:09.013Z,19.20
2018-11-28T06:10:38.501Z,19.47
2018-11-28T06:13:07.257Z,18.77
2018-11-28T06:15:35.882Z,19.60
2018-11-28T06:18:04.563Z,18.17
2018-11-28T06:20:33.458Z,20.07
2018-11-28T06:23:02.325Z,19.17
2018-11-28T06:25:30.941Z,19.67
2018-11-28T06:27:59.602Z,18.60
2018-11-28T06:30:28.300Z,20.57
2018-11-28T06:32:57.035Z,19.20
2018-11-28T06:35:25.655Z,19.10
2018-11-28T06:37:54.358Z,21.17
2018-11-28T06:40:24.340Z,18.53
2018-11-28T06:42:51.756Z,18.77
2018-11-28T06:45:21.684Z,19.00
2018-11-28T06:47:50.519Z,19.17
2018-11-28T06:50:19.898Z,19.40
2018-11-28T06:52:49.629Z,19.20
2018-11-28T06:55:20.307Z,18.30
2018-11-28T06:57:49.097Z,19.00
2018-11-28T07:00:19.819Z,18.50
2018-11-28T07:02:49.328Z,17.67
2018-11-28T07:05:19.686Z,19.10
2018-11-28T07:07:48.287Z,18.93
2018-11-28T07:10:18.334Z,20.20
2018-11-28T07:12:47.525Z,20.07
2018-11-28T07:15:18.053Z,18.87
2018-11-28T07:17:46.753Z,17.07
2018-11-28T07:20:16.197Z,18.97
2018-11-28T07:22:44.967Z,18.77
2018-11-28T07:25:17.308Z,18.30
2018-11-28T07:27:46.789Z,18.97
2018-11-28T07:30:19.119Z,18.73
2018-11-28T07:32:48.308Z,19.53
2018-11-28T07:35:16.969Z,19.10
2018-11-28T07:37:45.628Z,19.27
2018-11-28T07:40:16.302Z,18.83
2018-11-28T07:42:50.019Z,17.80
2018-11-28T07:45:18.673Z,19.57
2018-11-28T07:47:47.193Z,19.07
2018-11-28T07:50:15.965Z,18.50
2018-11-28T07:52:44.548Z,18.20
2018-11-28T07:55:13.084Z,18.23
2018-11-28T07:57:41.672Z,17.73
2018-11-28T08:00:13.289Z,17.93
2018-11-28T08:02:42.136Z,19.93
2018-11-28T08:05:11.370Z,19.23
2018-11-28T08:07:39.969Z,18.67
2018-11-28T08:10:20.968Z,17.93
2018-11-28T08:12:51.545Z,19.10
2018-11-28T08:15:20.089Z,19.10
2018-11-28T08:17:48.633Z,17.70
2018-11-28T08:20:17.176Z,16.20
2018-11-28T08:22:45.688Z,16.63
2018-11-28T08:25:15.266Z,17.67
2018-11-28T08:27:44.895Z,17.33
2018-11-28T08:30:14.771Z,18.27
2018-11-28T08:32:43.321Z,16.60
2018-11-28T08:35:12.327Z,18.77
2018-11-28T08:37:40.807Z,16.93
2018-11-28T08:40:13.280Z,17.27
2018-11-28T08:42:41.939Z,17.87
2018-11-28T08:45:12.214Z,18.10
2018-11-28T08:47:40.716Z,16.13
2018-11-28T08:50:12.934Z,17.80
2018-11-28T08:52:41.466Z,16.00
2018-11-28T08:55:11.374Z,17.70
2018-11-28T08:57:39.876Z,17.13
2018-11-28T09:00:13.357Z,17.83
2018-11-28T09:02:41.880Z,17.87
2018-11-28T09:05:11.489Z,18.53
2018-11-28T09:07:40.021Z,18.50
2018-11-28T09:10:10.950Z,17.67
2018-11-28T09:12:39.492Z,18.83
2018-11-28T09:15:10.820Z,16.83
2018-11-28T09:17:39.387Z,18.63
2018-11-28T09:20:12.858Z,17.37
2018-11-28T09:22:41.459Z,17.80
2018-11-28T09:25:17.229Z,16.83
2018-11-28T09:27:46.873Z,16.83
2018-11-28T09:30:17.281Z,16.47
2018-11-28T09:32:46.148Z,16.97
2018-11-28T09:35:20.725Z,16.03
2018-11-28T09:37:49.227Z,16.23
2018-11-28T09:40:20.705Z,16.23
2018-11-28T09:42:49.625Z,16.33
2018-11-28T09:45:18.676Z,15.90
2018-11-28T09:47:47.149Z,16.27
2018-11-28T09:50:16.581Z,16.90
2018-11-28T09:52:45.057Z,16.00
2018-11-28T09:55:16.432Z,15.87
2018-11-28T09:57:45.034Z,15.77
2018-11-28T10:00:16.807Z,15.27
2018-11-28T10:02:45.315Z,16.17
2018-11-28T10:05:17.856Z,16.13
2018-11-28T10:07:46.309Z,15.40
2018-11-28T10:10:14.788Z,14.63
2018-11-28T10:12:43.280Z,15.73
2018-11-28T10:15:14.023Z,15.93
2018-11-28T10:17:42.583Z,17.07
2018-11-28T10:20:12.759Z,16.20
2018-11-28T10:22:41.501Z,16.07
2018-11-28T10:25:12.140Z,15.80
2018-11-28T10:27:40.680Z,15.47
2018-11-28T10:30:14.590Z,15.57
2018-11-28T10:32:43.073Z,14.33
2018-11-28T10:35:11.596Z,15.57
2018-11-28T10:37:40.053Z,15.07
2018-11-28T10:40:15.248Z,16.27
2018-11-28T10:42:46.324Z,14.30
2018-11-28T10:45:16.434Z,14.43
2018-11-28T10:47:44.908Z,14.77
2018-11-28T10:50:14.261Z,13.60
2018-11-28T10:52:42.831Z,15.07
2018-11-28T10:55:17.054Z,14.47
2018-11-28T10:57:45.531Z,14.83
2018-11-28T11:00:34.861Z,14.73
2018-11-28T11:03:08.852Z,13.73
2018-11-28T11:05:42.721Z,14.67
2018-11-28T11:08:16.354Z,15.17
2018-11-28T11:10:50.230Z,15.37
2018-11-28T11:13:24.068Z,15.23
2018-11-28T11:15:56.216Z,14.83
2018-11-28T11:18:25.091Z,13.80
2018-11-28T11:20:53.715Z,15.00
2018-11-28T11:23:22.246Z,13.03
2018-11-28T11:25:51.127Z,13.13
2018-11-28T11:28:19.789Z,13.53
2018-11-28T11:30:48.336Z,13.23
2018-11-28T11:33:16.844Z,13.77
2018-11-28T11:35:45.347Z,13.40
2018-11-28T11:38:13.779Z,13.23
2018-11-28T11:40:42.235Z,13.93
2018-11-28T11:43:10.797Z,13.93
2018-11-28T11:45:39.788Z,13.93
2018-11-28T11:48:07.816Z,13.30
2018-11-28T11:50:36.305Z,12.40
2018-11-28T11:53:05.092Z,12.67
2018-11-28T11:55:34.105Z,11.30
2018-11-28T11:58:02.009Z,10.63
2018-11-28T12:00:30.496Z,12.03
2018-11-28T12:03:04.504Z,10.47
2018-11-28T12:05:32.988Z,10.43
2018-11-28T12:08:01.472Z,11.33
2018-11-28T12:10:29.909Z,11.50
2018-11-28T12:12:58.361Z,12.07
2018-11-28T12:15:26.812Z,11.53
2018-11-28T12:17:55.302Z,11.40
2018-11-28T12:20:55.946Z,10.17
2018-11-28T12:23:24.442Z,11.70
2018-11-28T12:25:53.017Z,10.93
2018-11-28T12:28:21.510Z,10.83
2018-11-28T12:30:49.979Z,9.80
2018-11-28T12:33:18.451Z,9.13
2018-11-28T12:35:47.008Z,9.73
2018-11-28T12:38:15.517Z,10.10
2018-11-28T12:40:44.014Z,10.03
2018-11-28T12:43:12.553Z,8.57
2018-11-28T12:45:42.616Z,9.43
2018-11-28T12:48:11.171Z,9.70
2018-11-28T12:50:39.702Z,10.17
2018-11-28T12:53:09.903Z,10.23
2018-11-28T12:55:38.664Z,12.37
2018-11-28T12:58:09.529Z,10.50
2018-11-28T13:00:38.074Z,10.80
2018-11-28T13:03:08.083Z,12.77
2018-11-28T13:05:36.612Z,10.60
2018-11-28T13:08:05.203Z,9.77
2018-11-28T13:10:35.097Z,9.37
2018-11-28T13:13:03.901Z,10.43
2018-11-28T13:15:32.401Z,11.70
2018-11-28T13:18:00.938Z,9.07
2018-11-28T13:20:29.464Z,10.57
2018-11-28T13:22:58.016Z,9.93
2018-11-28T13:25:27.317Z,10.47
2018-11-28T13:27:55.991Z,10.53
2018-11-28T13:30:25.268Z,9.77
2018-11-28T13:32:54.391Z,9.83
2018-11-28T13:35:23.821Z,8.50
2018-11-28T13:37:56.396Z,9.33
2018-11-28T13:40:24.954Z,9.67
2018-11-28T13:42:53.541Z,9.00
2018-11-28T13:45:25.150Z,10.60
2018-11-28T13:47:54.401Z,9.90
2018-11-28T13:50:22.888Z,9.00
2018-11-28T13:52:52.073Z,8.53
2018-11-28T13:55:39.760Z,9.33
2018-11-28T13:58:07.268Z,9.47
2018-11-28T14:00:35.782Z,10.23
2018-11-28T14:03:04.307Z,10.30
2018-11-28T14:05:32.858Z,9.27
2018-11-28T14:08:01.393Z,9.87
2018-11-28T14:10:29.914Z,9.93
2018-11-28T14:12:58.432Z,9.83
2018-11-28T14:15:26.937Z,9.50
2018-11-28T14:17:57.558Z,9.97
2018-11-28T14:20:26.083Z,9.73
2018-11-28T14:22:54.659Z,10.67
2018-11-28T14:25:23.908Z,10.03
2018-11-28T14:27:51.831Z,9.57
2018-11-28T14:30:21.254Z,10.13
2018-11-28T14:32:50.389Z,10.37
2018-11-28T14:35:19.092Z,9.97
2018-11-28T14:37:47.672Z,9.87
2018-11-28T14:40:19.937Z,10.37
2018-11-28T14:42:52.431Z,10.47
2018-11-28T14:45:20.977Z,10.10
2018-11-28T14:47:50.243Z,11.00
2018-11-28T14:50:20.648Z,11.27
2018-11-28T14:52:49.300Z,10.70
2018-11-28T14:55:20.849Z,11.53
2018-11-28T14:57:49.406Z,9.57
2018-11-28T15:00:21.775Z,10.43
2018-11-28T15:02:53.506Z,10.67
2018-11-28T15:05:25.889Z,10.57
2018-11-28T15:08:03.783Z,10.00
2018-11-28T15:10:39.941Z,13.00
2018-11-28T15:13:08.449Z,9.63
2018-11-28T15:15:36.946Z,11.23
2018-11-28T15:18:05.464Z,10.40
2018-11-28T15:20:33.939Z,10.77
2018-11-28T15:23:02.424Z,9.20
2018-11-28T15:25:30.902Z,9.87
2018-11-28T15:27:59.409Z,9.53
2018-11-28T15:30:27.940Z,10.03
2018-11-28T15:32:56.428Z,9.73
2018-11-28T15:35:24.921Z,9.70
2018-11-28T15:37:53.400Z,10.50
2018-11-28T15:40:21.882Z,9.97
2018-11-28T15:42:50.367Z,9.80
2018-11-28T15:45:18.857Z,9.80
2018-11-28T15:47:47.369Z,10.07
2018-11-28T15:50:15.892Z,8.60
2018-11-28T15:52:44.401Z,9.73
2018-11-28T15:55:13.493Z,9.97
2018-11-28T15:57:42.024Z,10.00
2018-11-28T16:00:16.947Z,10.07
2018-11-28T16:02:45.449Z,9.17
2018-11-28T16:05:13.920Z,10.23
2018-11-28T16:07:42.445Z,10.50
2018-11-28T16:10:17.519Z,10.90
2018-11-28T16:12:46.594Z,10.37
2018-11-28T16:15:20.169Z,10.77
2018-11-28T16:17:48.693Z,10.23
2018-11-28T16:20:17.184Z,10.13
2018-11-28T16:22:45.657Z,10.40
2018-11-28T16:25:14.254Z,11.23
2018-11-28T16:27:42.741Z,10.70
2018-11-28T16:30:12.657Z,10.77
2018-11-28T16:32:41.624Z,10.70
2018-11-28T16:35:11.477Z,11.20
2018-11-28T16:37:40.108Z,10.30
2018-11-28T16:40:11.045Z,10.57
2018-11-28T16:42:39.576Z,10.27
2018-11-28T16:45:17.399Z,11.50
2018-11-28T16:47:45.997Z,9.57
2018-11-28T16:50:15.105Z,9.90
2018-11-28T16:52:43.640Z,11.20
2018-11-28T16:55:14.834Z,12.80
2018-11-28T16:57:46.241Z,9.93
2018-11-28T17:00:18.830Z,9.23
2018-11-28T17:02:47.428Z,9.23
2018-11-28T17:05:19.031Z,10.00
2018-11-28T17:07:47.801Z,9.70
2018-11-28T17:10:18.297Z,9.80
2018-11-28T17:12:47.878Z,10.40
2018-11-28T17:15:17.843Z,9.40
2018-11-28T17:17:46.354Z,10.73
2018-11-28T17:20:19.565Z,9.70
2018-11-28T17:22:48.622Z,10.20
2018-11-28T17:25:20.770Z,8.57
2018-11-28T17:27:49.240Z,9.67
2018-11-28T17:30:19.263Z,9.40
2018-11-28T17:32:47.689Z,9.50
2018-11-28T17:35:16.213Z,9.20
2018-11-28T17:37:44.730Z,10.03
2018-11-28T17:40:18.149Z,9.67
2018-11-28T17:42:47.831Z,8.27
2018-11-28T17:45:17.060Z,8.70
2018-11-28T17:47:45.588Z,9.23
2018-11-28T17:50:23.612Z,7.70
2018-11-28T17:53:09.056Z,9.00
2018-11-28T17:55:40.326Z,9.13
2018-11-28T17:58:08.843Z,10.80
2018-11-28T18:00:37.385Z,9.13
2018-11-28T18:03:05.929Z,10.93
2018-11-28T18:05:34.468Z,10.10
2018-11-28T18:08:02.935Z,10.77
2018-11-28T18:10:31.524Z,12.37
2018-11-28T18:13:14.288Z,11.43
2018-11-28T18:15:44.825Z,17.57
2018-11-28T18:18:14.741Z,21.83
2018-11-28T18:20:43.277Z,25.27
2018-11-28T18:23:11.787Z,33.77
2018-11-28T18:25:40.884Z,14.97
2018-11-28T18:28:13.103Z,17.13
2018-11-28T18:30:43.965Z,10.47
2018-11-28T18:33:13.288Z,10.87
2018-11-28T18:35:41.854Z,10.50
2018-11-28T18:38:10.321Z,10.43
2018-11-28T18:40:38.833Z,10.63
2018-11-28T18:43:08.023Z,9.47
2018-11-28T18:45:38.249Z,10.33
2018-11-28T18:48:06.937Z,10.43
2018-11-28T18:50:35.448Z,11.07
2018-11-28T18:53:03.960Z,11.53
2018-11-28T18:55:32.480Z,10.93
2018-11-28T18:58:00.951Z,11.63
2018-11-28T19:00:29.488Z,11.63
2018-11-28T19:02:57.967Z,11.20
2018-11-28T19:05:26.454Z,10.47
2018-11-28T19:07:54.996Z,10.83
2018-11-28T19:10:26.585Z,9.73
2018-11-28T19:12:53.568Z,10.87
2018-11-28T19:15:24.896Z,10.80
2018-11-28T19:17:53.821Z,11.00
2018-11-28T19:20:23.000Z,11.57
2018-11-28T19:22:52.292Z,10.30
2018-11-28T19:25:22.955Z,11.37
2018-11-28T19:27:51.445Z,10.60
2018-11-28T19:30:30.521Z,10.57
2018-11-28T19:32:52.689Z,10.37
2018-11-28T19:35:21.182Z,10.90
2018-11-28T19:37:49.701Z,10.37
2018-11-28T19:40:21.133Z,10.93
2018-11-28T19:42:49.600Z,10.80
2018-11-28T19:45:18.091Z,13.77
2018-11-28T19:47:46.580Z,14.57
2018-11-28T19:50:23.205Z,12.20
2018-11-28T19:52:51.669Z,12.17
2018-11-28T19:55:20.168Z,12.30
2018-11-28T19:57:48.655Z,12.63
2018-11-28T20:00:18.100Z,12.40
2018-11-28T20:02:46.836Z,12.27
2018-11-28T20:05:15.380Z,13.33
2018-11-28T20:07:45.953Z,13.80
2018-11-28T20:10:16.906Z,12.83
2018-11-28T20:12:45.388Z,11.17
2018-11-28T20:15:20.205Z,12.50
2018-11-28T20:17:48.868Z,11.40
2018-11-28T20:20:17.610Z,12.37
2018-11-28T20:22:46.149Z,12.67
2018-11-28T20:25:17.360Z,13.50
2018-11-28T20:27:49.016Z,12.23
2018-11-28T20:30:23.766Z,11.83
2018-11-28T20:32:52.243Z,12.20
2018-11-28T20:35:20.740Z,11.77
2018-11-28T20:37:49.217Z,19.40
2018-11-28T20:40:18.269Z,31.10
2018-11-28T20:42:49.902Z,16.83
2018-11-28T20:45:18.418Z,13.13
2018-11-28T20:47:46.920Z,11.10
2018-11-28T20:50:17.685Z,10.10
2018-11-28T20:52:47.697Z,10.17
2018-11-28T20:55:16.230Z,11.47
2018-11-28T20:57:44.708Z,14.93
2018-11-28T21:00:18.565Z,12.77
2018-11-28T21:02:47.073Z,12.57
2018-11-28T21:05:15.577Z,14.97
2018-11-28T21:07:44.161Z,13.87
2018-11-28T21:10:19.059Z,12.70
2018-11-28T21:12:47.607Z,14.07
2018-11-28T21:15:16.136Z,13.43
2018-11-28T21:17:45.160Z,13.33
2018-11-28T21:20:19.518Z,13.87
2018-11-28T21:22:56.829Z,12.97
2018-11-28T21:25:25.375Z,16.53
2018-11-28T21:27:53.929Z,15.40
2018-11-28T21:30:22.495Z,16.30
2018-11-28T21:32:52.084Z,15.07
2018-11-28T21:35:29.261Z,15.13
2018-11-28T21:37:57.797Z,16.27
2018-11-28T21:40:26.474Z,17.37
2018-11-28T21:42:55.092Z,15.73
2018-11-28T21:45:24.181Z,17.40
2018-11-28T21:47:52.702Z,17.80
2018-11-28T21:50:21.250Z,21.03
2018-11-28T21:52:49.758Z,18.10
2018-11-28T21:55:20.185Z,21.47
2018-11-28T21:57:48.747Z,22.63
2018-11-28T22:00:18.229Z,19.70
2018-11-28T22:02:46.745Z,18.20
2018-11-28T22:05:15.999Z,17.17
2018-11-28T22:07:44.601Z,24.40
2018-11-28T22:10:14.671Z,23.53
2018-11-28T22:12:43.233Z,16.40
2018-11-28T22:15:15.425Z,14.93
2018-11-28T22:17:45.896Z,16.07
2018-11-28T22:20:14.908Z,16.90
2018-11-28T22:22:43.563Z,17.60
2018-11-28T22:25:17.995Z,20.10
2018-11-28T22:27:46.533Z,19.97
2018-11-28T22:30:17.452Z,17.77
2018-11-28T22:32:45.960Z,18.40
2018-11-28T22:35:14.436Z,16.67
2018-11-28T22:37:43.000Z,17.43
2018-11-28T22:40:16.405Z,17.10
2018-11-28T22:42:44.897Z,16.63
2018-11-28T22:45:19.371Z,18.97
2018-11-28T22:47:47.940Z,17.23
2018-11-28T22:50:16.416Z,17.90
2018-11-28T22:52:44.919Z,17.53
2018-11-28T22:55:18.877Z,18.33
2018-11-28T22:57:47.387Z,17.87
2018-11-28T23:00:17.063Z,18.47
2018-11-28T23:02:54.842Z,19.30
2018-11-28T23:05:26.566Z,18.20
2018-11-28T23:07:55.762Z,17.33
2018-11-28T23:10:24.278Z,17.97
2018-11-28T23:12:52.760Z,18.07
2018-11-28T23:15:21.272Z,16.30
2018-11-28T23:17:54.865Z,17.03
2018-11-28T23:20:18.325Z,16.93
2018-11-28T23:22:46.848Z,16.03
2018-11-28T23:25:15.367Z,16.97
2018-11-28T23:27:43.824Z,16.27
2018-11-28T23:30:20.652Z,16.37
2018-11-28T23:32:49.788Z,17.00
2018-11-28T23:35:18.504Z,16.77
2018-11-28T23:37:47.861Z,17.13
2018-11-28T23:40:19.307Z,16.57
2018-11-28T23:42:47.856Z,16.03
2018-11-28T23:45:16.637Z,16.83
2018-11-28T23:47:45.111Z,15.40
2018-11-28T23:50:16.432Z,16.03
2018-11-28T23:52:45.077Z,16.73
2018-11-28T23:55:16.289Z,16.43
2018-11-28T23:57:44.799Z,15.80
